Terminal Aerodrome Forecast
Issued by NWS Blacksburg, VA

Current Version | Previous Version | Text Only | Print | Product List | Glossary Off
Versions: 1 2 3 4 5 6 7 8 9 10 11 12 13 14 15 16 17 18 19 20 21 22 23 24 25 26 27 28 29 30 31 32 33 34 35 36 37 38 39 40 41 42 43 44 45 46 47 48

000
FTUS41 KRNK 241438 AAA
TAFBLF
TAF AMD
KBLF 241438Z 2415/2512 30010KT 1/2SM SN OVC005
     FM241600 30010G17KT 1SM -SN BR SCT004 OVC007
     FM241700 30010G20KT 4SM BR SCT007 OVC012
     FM241900 29012G22KT P6SM BKN015
     FM250200 28010G20KT 6SM -SHSN OVC025
     FM250600 28008KT 2SM -SHSN OVC003=

USA.gov is the U.S. government's official web portal to all federal, state and local government web resources and services.